createdAt,value
2017-09-27T00:00:23.708Z,18.00
2017-09-27T00:02:52.571Z,17.42
2017-09-27T00:05:21.420Z,18.40
2017-09-27T00:07:50.849Z,17.45
2017-09-27T00:10:19.693Z,17.85
2017-09-27T00:12:48.578Z,18.20
2017-09-27T00:15:17.431Z,17.35
2017-09-27T00:17:46.282Z,17.58
2017-09-27T00:20:15.118Z,17.10
2017-09-27T00:22:43.969Z,18.35
2017-09-27T00:25:14.752Z,18.70
2017-09-27T00:27:43.647Z,17.92
2017-09-27T00:30:12.486Z,18.17
2017-09-27T00:32:41.338Z,17.62
2017-09-27T00:35:10.177Z,18.55
2017-09-27T00:37:39.782Z,19.20
2017-09-27T00:40:09.405Z,18.65
2017-09-27T00:42:38.253Z,17.45
2017-09-27T00:45:07.092Z,17.83
2017-09-27T00:47:35.933Z,17.30
2017-09-27T00:50:04.785Z,18.50
2017-09-27T00:52:33.636Z,17.00
2017-09-27T00:55:03.049Z,18.58
2017-09-27T00:57:33.117Z,18.75
2017-09-27T01:00:01.980Z,17.67
2017-09-27T01:02:30.814Z,18.60
2017-09-27T01:04:59.678Z,16.80
2017-09-27T01:07:28.514Z,17.00
2017-09-27T01:09:57.364Z,19.00
2017-09-27T01:12:26.219Z,19.50
2017-09-27T01:14:55.831Z,18.35
2017-09-27T01:17:25.444Z,17.52
2017-09-27T01:19:53.934Z,19.17
2017-09-27T01:22:22.774Z,17.27
2017-09-27T01:24:50.926Z,16.75
2017-09-27T01:27:19.701Z,19.15
2017-09-27T01:29:48.214Z,16.52
2017-09-27T01:32:17.053Z,16.60
2017-09-27T01:34:45.552Z,20.92
2017-09-27T01:37:14.061Z,18.73
2017-09-27T01:39:42.906Z,17.62
2017-09-27T01:42:11.827Z,18.25
2017-09-27T01:44:39.990Z,17.75
2017-09-27T01:47:08.489Z,16.12
2017-09-27T01:49:36.986Z,19.10
2017-09-27T01:52:06.061Z,18.27
2017-09-27T01:54:34.241Z,17.95
2017-09-27T01:57:02.757Z,19.67
2017-09-27T01:59:31.714Z,20.40
2017-09-27T02:02:00.206Z,16.87
2017-09-27T02:04:29.053Z,18.40
2017-09-27T02:06:57.903Z,19.33
2017-09-27T02:09:26.750Z,19.98
2017-09-27T02:11:56.508Z,19.23
2017-09-27T02:14:25.349Z,18.42
2017-09-27T02:16:54.197Z,19.15
2017-09-27T02:19:23.038Z,18.08
2017-09-27T02:21:51.894Z,18.25
2017-09-27T02:24:20.746Z,18.40
2017-09-27T02:26:50.537Z,21.08
2017-09-27T02:29:19.382Z,19.30
2017-09-27T02:31:49.000Z,20.48
2017-09-27T02:34:18.620Z,19.67
2017-09-27T02:36:48.345Z,18.90
2017-09-27T02:39:17.023Z,17.42
2017-09-27T02:41:45.878Z,18.62
2017-09-27T02:44:16.080Z,19.90
2017-09-27T02:46:44.754Z,20.80
2017-09-27T02:49:13.606Z,20.75
2017-09-27T02:51:43.228Z,17.67
2017-09-27T02:54:12.084Z,18.05
2017-09-27T02:56:41.165Z,19.80
2017-09-27T02:59:10.003Z,19.77
2017-09-27T03:01:40.473Z,19.92
2017-09-27T03:04:09.328Z,19.73
2017-09-27T03:06:38.167Z,18.90
2017-09-27T03:09:07.018Z,19.85
2017-09-27T03:11:36.655Z,19.92
2017-09-27T03:14:05.509Z,20.02
2017-09-27T03:16:35.219Z,19.02
2017-09-27T03:19:05.063Z,18.80
2017-09-27T03:21:34.428Z,18.33
2017-09-27T03:24:03.310Z,19.92
2017-09-27T03:26:32.935Z,20.08
2017-09-27T03:29:01.781Z,20.35
2017-09-27T03:31:30.627Z,20.20
2017-09-27T03:33:59.479Z,19.65
2017-09-27T03:36:28.405Z,20.05
2017-09-27T03:38:57.259Z,19.40
2017-09-27T03:41:26.115Z,20.12
2017-09-27T03:43:54.962Z,20.25
2017-09-27T03:46:24.573Z,19.37
2017-09-27T03:48:53.894Z,18.80
2017-09-27T03:51:23.195Z,19.30
2017-09-27T03:53:52.054Z,21.52
2017-09-27T03:56:21.690Z,23.87
2017-09-27T03:58:50.344Z,21.50
2017-09-27T04:01:19.996Z,22.00
2017-09-27T04:03:48.833Z,20.15
2017-09-27T04:06:17.670Z,21.85
2017-09-27T04:08:47.102Z,21.45
2017-09-27T04:11:15.947Z,20.05
2017-09-27T04:13:45.553Z,18.65
2017-09-27T04:16:15.158Z,21.35
2017-09-27T04:18:44.766Z,20.20
2017-09-27T04:21:14.379Z,20.77
2017-09-27T04:23:43.227Z,21.77
2017-09-27T04:26:12.178Z,23.00
2017-09-27T04:28:41.035Z,21.33
2017-09-27T04:31:09.877Z,21.23
2017-09-27T04:33:38.733Z,17.58
2017-09-27T04:36:08.371Z,19.48
2017-09-27T04:38:37.218Z,19.08
2017-09-27T04:41:06.838Z,21.20
2017-09-27T04:43:36.446Z,23.20
2017-09-27T04:46:06.061Z,22.35
2017-09-27T04:48:35.675Z,22.85
2017-09-27T04:51:05.315Z,21.02
2017-09-27T04:53:34.167Z,20.02
2017-09-27T04:56:03.789Z,21.15
2017-09-27T04:58:32.640Z,21.80
2017-09-27T05:01:01.474Z,23.02
2017-09-27T05:03:30.034Z,22.23
2017-09-27T05:05:59.654Z,24.52
2017-09-27T05:08:43.245Z,22.92
2017-09-27T05:11:11.901Z,22.67
2017-09-27T05:13:40.755Z,22.65
2017-09-27T05:16:10.362Z,27.00
2017-09-27T05:18:39.026Z,25.77
2017-09-27T05:21:07.878Z,23.02
2017-09-27T05:23:36.719Z,24.17
2017-09-27T05:26:05.577Z,23.15
2017-09-27T05:28:34.188Z,23.00
2017-09-27T05:31:03.032Z,20.70
2017-09-27T05:33:31.889Z,23.98
2017-09-27T05:36:01.497Z,25.52
2017-09-27T05:38:31.138Z,23.90
2017-09-27T05:41:01.725Z,24.40
2017-09-27T05:43:30.585Z,26.67
2017-09-27T05:46:00.343Z,22.50
2017-09-27T05:48:43.601Z,27.67
2017-09-27T05:51:12.455Z,24.05
2017-09-27T05:53:41.837Z,26.48
2017-09-27T05:56:10.683Z,26.48
2017-09-27T05:58:39.567Z,26.05
2017-09-27T06:01:08.437Z,25.52
2017-09-27T06:03:38.057Z,29.45
2017-09-27T06:06:07.689Z,26.62
2017-09-27T06:08:36.553Z,26.98
2017-09-27T06:11:06.172Z,27.15
2017-09-27T06:13:36.687Z,26.50
2017-09-27T06:16:06.343Z,26.92
2017-09-27T06:18:35.183Z,25.55
2017-09-27T06:21:04.802Z,27.37
2017-09-27T06:23:35.534Z,26.40
2017-09-27T06:26:05.161Z,25.30
2017-09-27T06:28:34.870Z,25.62
2017-09-27T06:31:03.599Z,26.33
2017-09-27T06:33:32.486Z,31.90
2017-09-27T06:36:01.621Z,26.58
2017-09-27T06:38:31.229Z,23.05
2017-09-27T06:41:01.814Z,20.73
2017-09-27T06:43:30.653Z,22.95
2017-09-27T06:46:01.721Z,22.95
2017-09-27T06:48:30.578Z,22.65
2017-09-27T06:51:00.311Z,21.35
2017-09-27T06:53:30.006Z,24.17
2017-09-27T06:58:34.138Z,24.98
2017-09-27T07:01:03.730Z,21.02
2017-09-27T07:03:32.775Z,23.35
2017-09-27T07:06:01.621Z,21.12
2017-09-27T07:08:30.469Z,24.85
2017-09-27T07:10:59.319Z,22.15
2017-09-27T07:13:28.190Z,22.60
2017-09-27T07:15:57.054Z,24.12
2017-09-27T07:18:26.373Z,20.88
2017-09-27T07:20:55.233Z,22.42
2017-09-27T07:23:24.079Z,23.17
2017-09-27T07:25:53.924Z,21.62
2017-09-27T07:28:23.735Z,21.83
2017-09-27T07:30:53.370Z,22.10
2017-09-27T07:33:22.230Z,22.77
2017-09-27T07:35:51.071Z,22.10
2017-09-27T07:38:19.954Z,21.98
2017-09-27T07:40:49.328Z,19.40
2017-09-27T07:43:18.173Z,19.92
2017-09-27T07:45:47.030Z,19.77
2017-09-27T07:48:15.895Z,20.48
2017-09-27T07:50:44.737Z,22.45
2017-09-27T07:53:14.153Z,21.55
2017-09-27T07:55:43.005Z,20.75
2017-09-27T07:58:11.862Z,18.48
2017-09-27T08:00:40.723Z,17.77
2017-09-27T08:03:09.578Z,18.87
2017-09-27T08:05:39.199Z,18.42
2017-09-27T08:08:08.055Z,19.45
2017-09-27T08:10:36.896Z,16.40
2017-09-27T08:13:06.143Z,16.02
2017-09-27T08:15:34.990Z,15.63
2017-09-27T08:18:03.833Z,15.40
2017-09-27T08:20:33.806Z,16.27
2017-09-27T08:23:02.682Z,15.27
2017-09-27T08:25:31.546Z,15.88
2017-09-27T08:28:01.154Z,15.73
2017-09-27T08:30:29.993Z,16.30
2017-09-27T08:32:59.469Z,14.93
2017-09-27T08:35:28.331Z,15.55
2017-09-27T08:37:57.184Z,15.18
2017-09-27T08:40:26.814Z,14.13
2017-09-27T08:42:55.662Z,14.40
2017-09-27T08:45:24.532Z,13.35
2017-09-27T08:47:53.385Z,15.00
2017-09-27T08:50:22.791Z,14.80
2017-09-27T08:52:52.378Z,13.10
2017-09-27T08:55:21.985Z,14.35
2017-09-27T08:57:50.854Z,14.77
2017-09-27T09:00:19.082Z,14.95
2017-09-27T09:02:48.693Z,12.90
2017-09-27T09:05:17.562Z,14.25
2017-09-27T09:07:46.221Z,14.05
2017-09-27T09:10:15.073Z,13.07
2017-09-27T09:12:44.165Z,14.07
2017-09-27T09:15:13.679Z,13.55
2017-09-27T09:17:43.688Z,13.07
2017-09-27T09:20:12.547Z,14.55
2017-09-27T09:22:41.883Z,12.82
2017-09-27T09:25:11.185Z,14.95
2017-09-27T09:27:40.049Z,12.95
2017-09-27T09:30:08.918Z,13.23
2017-09-27T09:32:39.361Z,13.38
2017-09-27T09:35:10.560Z,13.20
2017-09-27T09:37:40.931Z,14.00
2017-09-27T09:40:10.567Z,13.82
2017-09-27T09:42:39.428Z,12.57
2017-09-27T09:45:09.268Z,12.43
2017-09-27T09:47:38.126Z,12.07
2017-09-27T09:50:07.783Z,12.75
2017-09-27T09:52:36.658Z,11.55
2017-09-27T09:55:06.173Z,11.45
2017-09-27T09:57:36.097Z,11.55
2017-09-27T10:00:05.425Z,11.55
2017-09-27T10:02:34.290Z,11.80
2017-09-27T10:05:04.304Z,11.73
2017-09-27T10:07:33.918Z,10.30
2017-09-27T10:10:03.534Z,10.45
2017-09-27T10:12:32.449Z,9.95
2017-09-27T10:15:02.097Z,10.48
2017-09-27T10:17:31.470Z,11.70
2017-09-27T10:20:01.417Z,11.20
2017-09-27T10:22:30.356Z,10.43
2017-09-27T10:24:59.216Z,10.40
2017-09-27T10:27:28.618Z,10.98
2017-09-27T10:29:58.346Z,11.27
2017-09-27T10:32:27.202Z,12.55
2017-09-27T10:34:56.823Z,11.32
2017-09-27T10:37:25.682Z,10.15
2017-09-27T10:39:54.555Z,8.85
2017-09-27T10:42:23.399Z,9.45
2017-09-27T10:44:52.249Z,8.63
2017-09-27T10:47:21.105Z,10.40
2017-09-27T10:49:50.498Z,10.13
2017-09-27T10:52:20.114Z,9.98
2017-09-27T10:54:48.969Z,9.30
2017-09-27T10:57:18.673Z,9.95
2017-09-27T10:59:48.303Z,10.27
2017-09-27T11:02:17.150Z,9.55
2017-09-27T11:04:46.011Z,10.35
2017-09-27T11:07:15.555Z,9.50
2017-09-27T11:09:44.149Z,10.13
2017-09-27T11:12:13.170Z,10.48
2017-09-27T11:14:42.380Z,10.95
2017-09-27T11:17:11.762Z,8.43
2017-09-27T11:19:41.131Z,9.10
2017-09-27T11:22:09.970Z,9.02
2017-09-27T11:24:38.591Z,9.87
2017-09-27T11:27:08.058Z,8.87
2017-09-27T11:29:36.906Z,8.73
2017-09-27T11:32:05.486Z,8.80
2017-09-27T11:34:34.097Z,9.67
2017-09-27T11:37:03.837Z,8.57
2017-09-27T11:39:33.312Z,8.30
2017-09-27T11:42:01.883Z,9.80
2017-09-27T11:44:30.737Z,9.25
2017-09-27T11:46:59.934Z,9.07
2017-09-27T11:49:28.509Z,8.20
2017-09-27T11:51:57.098Z,8.53
2017-09-27T11:54:25.676Z,7.77
2017-09-27T11:56:54.255Z,7.63
2017-09-27T11:59:23.291Z,7.90
2017-09-27T12:01:53.440Z,8.47
2017-09-27T12:04:22.017Z,8.80
2017-09-27T12:06:50.875Z,7.50
2017-09-27T12:09:20.210Z,8.13
2017-09-27T12:11:48.779Z,7.90
2017-09-27T12:14:18.134Z,8.67
2017-09-27T12:16:46.733Z,7.97
2017-09-27T12:19:15.332Z,9.00
2017-09-27T12:21:44.693Z,14.67
2017-09-27T12:24:13.274Z,7.03
2017-09-27T12:26:41.861Z,7.33
2017-09-27T12:29:10.474Z,7.40
2017-09-27T12:31:39.037Z,6.90
2017-09-27T12:34:07.609Z,6.77
2017-09-27T12:36:36.192Z,6.90
2017-09-27T12:39:04.627Z,7.67
2017-09-27T12:41:33.229Z,8.23
2017-09-27T12:44:02.882Z,7.07
2017-09-27T12:46:31.481Z,6.40
2017-09-27T12:49:00.050Z,7.30
2017-09-27T12:51:28.658Z,6.80
2017-09-27T12:53:57.912Z,16.00
2017-09-27T12:56:26.491Z,10.43
2017-09-27T12:58:54.877Z,7.20
2017-09-27T13:01:23.458Z,6.70
2017-09-27T13:03:52.043Z,7.10
2017-09-27T13:06:20.631Z,6.40
2017-09-27T13:08:49.038Z,6.27
2017-09-27T13:11:17.635Z,7.33
2017-09-27T13:13:47.076Z,7.17
2017-09-27T13:16:16.419Z,6.73
2017-09-27T13:18:45.055Z,7.13
2017-09-27T13:21:14.475Z,7.47
2017-09-27T13:23:43.066Z,9.57
2017-09-27T13:26:11.685Z,8.53
2017-09-27T13:28:44.312Z,14.37
2017-09-27T13:31:14.314Z,9.07
2017-09-27T13:33:42.917Z,8.10
2017-09-27T13:36:12.699Z,8.80
2017-09-27T13:38:42.144Z,8.70
2017-09-27T13:41:10.730Z,9.40
2017-09-27T13:43:40.633Z,7.83
2017-09-27T13:46:09.975Z,8.37
2017-09-27T13:48:38.563Z,7.13
2017-09-27T13:51:07.902Z,7.90
2017-09-27T13:53:37.919Z,8.00
2017-09-27T13:56:06.490Z,6.70
2017-09-27T13:58:35.092Z,8.00
2017-09-27T14:01:03.664Z,5.80
2017-09-27T14:03:32.247Z,7.77
2017-09-27T14:06:00.831Z,7.27
2017-09-27T14:08:30.429Z,7.47
2017-09-27T14:10:59.030Z,6.40
2017-09-27T14:13:28.621Z,6.50
2017-09-27T14:15:57.215Z,6.40
2017-09-27T14:18:25.812Z,6.50
2017-09-27T14:20:55.384Z,6.50
2017-09-27T14:23:23.977Z,7.40
2017-09-27T14:25:52.576Z,6.43
2017-09-27T14:28:21.187Z,7.10
2017-09-27T14:30:50.548Z,7.83
2017-09-27T14:33:19.974Z,6.90
2017-09-27T14:35:48.874Z,7.30
2017-09-27T14:38:18.230Z,6.80
2017-09-27T14:40:47.866Z,8.67
2017-09-27T14:43:17.285Z,7.53
2017-09-27T14:45:46.142Z,6.47
2017-09-27T14:48:15.791Z,7.43
2017-09-27T14:50:44.665Z,7.07
2017-09-27T14:53:13.541Z,7.53
2017-09-27T14:55:42.381Z,7.20
2017-09-27T14:58:11.731Z,8.30
2017-09-27T15:00:40.587Z,6.57
2017-09-27T15:03:09.444Z,7.78
2017-09-27T15:05:38.297Z,7.87
2017-09-27T15:08:07.904Z,7.00
2017-09-27T15:10:36.757Z,6.68
2017-09-27T15:13:05.619Z,8.52
2017-09-27T15:15:34.214Z,7.90
2017-09-27T15:18:02.593Z,7.40
2017-09-27T15:20:31.170Z,7.30
2017-09-27T15:23:00.591Z,7.43
2017-09-27T15:25:29.436Z,7.70
2017-09-27T15:27:58.292Z,8.38
2017-09-27T15:30:26.947Z,7.25
2017-09-27T15:32:55.794Z,7.15
2017-09-27T15:35:25.406Z,8.40
2017-09-27T15:37:55.034Z,7.65
2017-09-27T15:40:23.903Z,7.97
2017-09-27T15:42:53.543Z,8.05
2017-09-27T15:45:22.398Z,8.57
2017-09-27T15:47:52.005Z,8.90
2017-09-27T15:50:21.638Z,8.90
2017-09-27T15:52:50.485Z,9.85
2017-09-27T15:55:19.343Z,8.15
2017-09-27T15:57:48.285Z,9.10
2017-09-27T16:00:17.904Z,8.40
2017-09-27T16:02:46.772Z,9.60
2017-09-27T16:05:15.602Z,9.40
2017-09-27T16:07:44.447Z,8.85
2017-09-27T16:10:13.297Z,9.88
2017-09-27T16:12:42.135Z,8.38
2017-09-27T16:15:10.977Z,8.20
2017-09-27T16:17:39.813Z,8.60
2017-09-27T16:20:08.682Z,9.40
2017-09-27T16:22:37.530Z,9.20
2017-09-27T16:25:06.395Z,8.80
2017-09-27T16:27:36.005Z,9.55
2017-09-27T16:30:04.877Z,9.52
2017-09-27T16:32:33.739Z,11.10
2017-09-27T16:35:03.498Z,8.75
2017-09-27T16:37:33.536Z,9.52
2017-09-27T16:40:02.394Z,8.63
2017-09-27T16:42:32.162Z,9.65
2017-09-27T16:45:01.006Z,9.40
2017-09-27T16:47:30.230Z,9.68
2017-09-27T16:49:59.099Z,10.88
2017-09-27T16:52:27.957Z,15.82
2017-09-27T16:54:56.804Z,18.67
2017-09-27T16:57:27.323Z,20.77
2017-09-27T16:59:56.217Z,22.30
2017-09-27T17:02:25.673Z,21.27
2017-09-27T17:04:54.881Z,23.30
2017-09-27T17:07:24.048Z,24.37
2017-09-27T17:09:52.897Z,28.35
2017-09-27T17:12:21.743Z,29.05
2017-09-27T17:14:52.018Z,29.95
2017-09-27T17:17:21.635Z,31.23
2017-09-27T17:19:50.491Z,31.33
2017-09-27T17:25:02.743Z,33.13
2017-09-27T17:27:31.633Z,32.58
2017-09-27T17:30:05.646Z,34.08
2017-09-27T17:32:35.279Z,35.40
2017-09-27T17:35:04.136Z,33.75
2017-09-27T17:37:33.659Z,38.45
2017-09-27T17:40:03.314Z,34.22
2017-09-27T17:42:32.350Z,35.88
2017-09-27T17:45:01.235Z,38.28
2017-09-27T17:47:30.101Z,37.10
2017-09-27T17:49:59.206Z,37.83
2017-09-27T17:52:28.076Z,39.10
2017-09-27T17:54:56.983Z,38.75
2017-09-27T17:57:28.823Z,38.67
2017-09-27T17:59:57.702Z,36.80
2017-09-27T18:02:26.563Z,39.42
2017-09-27T18:04:58.042Z,39.45
2017-09-27T18:07:29.437Z,40.05
2017-09-27T18:13:13.948Z,39.25
2017-09-27T18:15:52.365Z,42.10
2017-09-27T18:18:22.331Z,40.72
2017-09-27T18:20:51.022Z,43.22
2017-09-27T18:23:19.711Z,43.28
2017-09-27T18:25:48.432Z,45.50
2017-09-27T18:28:18.298Z,43.15
2017-09-27T18:30:47.849Z,43.55
2017-09-27T18:33:17.141Z,43.10
2017-09-27T18:35:47.369Z,45.97
2017-09-27T18:38:16.034Z,45.12
2017-09-27T18:40:44.905Z,47.70
2017-09-27T18:43:13.702Z,46.30
2017-09-27T18:45:42.574Z,46.92
2017-09-27T18:48:11.486Z,44.83
2017-09-27T18:50:40.343Z,45.85
2017-09-27T18:53:08.923Z,45.72
2017-09-27T18:55:37.786Z,42.97
2017-09-27T18:58:09.430Z,44.65
2017-09-27T19:00:39.919Z,46.60
2017-09-27T19:03:09.570Z,47.50
2017-09-27T19:05:39.268Z,43.42
2017-09-27T19:08:08.130Z,49.15
2017-09-27T19:10:36.997Z,46.65
2017-09-27T19:13:06.606Z,47.92
2017-09-27T19:15:36.540Z,45.15
2017-09-27T19:18:05.413Z,49.67
2017-09-27T19:20:35.945Z,45.35
2017-09-27T19:23:05.603Z,44.60
2017-09-27T19:25:34.462Z,48.55
2017-09-27T19:28:03.031Z,49.15
2017-09-27T19:30:32.686Z,48.35
2017-09-27T19:33:01.550Z,48.83
2017-09-27T19:35:30.429Z,48.20
2017-09-27T19:37:59.326Z,45.30
2017-09-27T19:40:28.087Z,45.90
2017-09-27T19:42:56.947Z,47.97
2017-09-27T19:45:25.932Z,46.80
2017-09-27T19:47:54.778Z,47.35
2017-09-27T19:50:24.388Z,43.75
2017-09-27T19:52:53.259Z,46.13
2017-09-27T19:55:22.151Z,42.88
2017-09-27T19:57:51.056Z,44.40
2017-09-27T20:00:20.705Z,44.75
2017-09-27T20:02:50.213Z,44.75
2017-09-27T20:05:20.008Z,47.13
2017-09-27T20:07:48.876Z,42.60
2017-09-27T20:10:19.358Z,44.88
2017-09-27T20:12:48.213Z,42.95
2017-09-27T20:17:50.634Z,44.40
2017-09-27T20:20:20.066Z,45.42
2017-09-27T20:22:48.926Z,43.53
2017-09-27T20:25:17.959Z,44.65
2017-09-27T20:27:46.822Z,42.85
2017-09-27T20:30:15.758Z,43.72
2017-09-27T20:32:45.965Z,43.70
2017-09-27T20:35:14.622Z,39.63
2017-09-27T20:37:43.537Z,42.70
2017-09-27T20:40:12.502Z,42.33
2017-09-27T20:42:42.302Z,44.13
2017-09-27T20:45:11.238Z,41.42
2017-09-27T20:47:40.081Z,42.58
2017-09-27T20:50:09.694Z,42.08
2017-09-27T20:52:38.784Z,41.50
2017-09-27T20:55:07.635Z,43.92
2017-09-27T20:57:37.076Z,44.42
2017-09-27T21:00:05.925Z,42.80
2017-09-27T21:02:34.774Z,44.60
2017-09-27T21:05:03.637Z,43.25
2017-09-27T21:07:32.307Z,44.05
2017-09-27T21:10:02.160Z,42.33
2017-09-27T21:12:30.819Z,39.92
2017-09-27T21:15:00.133Z,41.75
2017-09-27T21:17:28.787Z,43.72
2017-09-27T21:19:57.706Z,42.53
2017-09-27T21:22:26.558Z,42.88
2017-09-27T21:24:55.420Z,39.15
2017-09-27T21:27:24.268Z,44.40
2017-09-27T21:29:54.872Z,40.08
2017-09-27T21:32:24.641Z,41.35
2017-09-27T21:34:54.368Z,44.75
2017-09-27T21:37:23.251Z,38.95
2017-09-27T21:39:52.100Z,43.80
2017-09-27T21:42:21.716Z,43.55
2017-09-27T21:44:51.337Z,44.25
2017-09-27T21:47:20.180Z,40.88
2017-09-27T21:49:49.042Z,40.35
2017-09-27T21:52:17.886Z,40.80
2017-09-27T21:54:48.177Z,42.13
2017-09-27T21:57:17.043Z,42.60
2017-09-27T21:59:45.886Z,44.75
2017-09-27T22:02:16.319Z,42.92
2017-09-27T22:04:45.199Z,41.50
2017-09-27T22:07:14.040Z,45.55
2017-09-27T22:09:42.897Z,41.17
2017-09-27T22:12:12.509Z,39.72
2017-09-27T22:14:42.132Z,45.00
2017-09-27T22:17:10.981Z,42.10
2017-09-27T22:19:39.824Z,44.42
2017-09-27T22:22:10.412Z,45.50
2017-09-27T22:24:40.034Z,44.90
2017-09-27T22:27:09.688Z,43.45
2017-09-27T22:29:38.552Z,42.42
2017-09-27T22:32:08.137Z,44.35
2017-09-27T22:34:37.761Z,44.58
2017-09-27T22:37:07.362Z,43.55
2017-09-27T22:39:36.984Z,43.50
2017-09-27T22:42:05.840Z,42.75
2017-09-27T22:44:34.688Z,43.83
2017-09-27T22:47:03.530Z,42.22
2017-09-27T22:49:32.381Z,42.62
2017-09-27T22:52:01.232Z,40.15
2017-09-27T22:54:30.854Z,40.90
2017-09-27T22:56:59.706Z,40.83
2017-09-27T22:59:28.555Z,38.78
2017-09-27T23:01:57.423Z,38.42
2017-09-27T23:04:26.265Z,40.92
2017-09-27T23:06:55.118Z,40.95
2017-09-27T23:09:23.957Z,38.88
2017-09-27T23:11:52.802Z,37.88
2017-09-27T23:14:21.638Z,37.60
2017-09-27T23:16:50.483Z,37.97
2017-09-27T23:19:19.337Z,39.55
2017-09-27T23:21:49.498Z,38.35
2017-09-27T23:24:18.340Z,40.12
2017-09-27T23:26:47.966Z,39.03
2017-09-27T23:29:17.572Z,38.80
2017-09-27T23:31:47.947Z,40.12
2017-09-27T23:34:16.787Z,38.80
2017-09-27T23:36:46.406Z,35.03
2017-09-27T23:39:16.044Z,36.78
2017-09-27T23:41:44.892Z,34.47
2017-09-27T23:44:15.054Z,33.33
2017-09-27T23:46:43.901Z,35.78
2017-09-27T23:49:12.740Z,30.33
2017-09-27T23:51:41.590Z,34.40
2017-09-27T23:54:11.193Z,31.17
2017-09-27T23:56:40.802Z,30.92
2017-09-27T23:59:10.413Z,28.38
